Time;durP1;ratioP1;P1;durP2;ratioP2;P2;SDS_P1;SDS_P2;PMS_P1;PMS_P2;Temp;Humidity;BMP_temperature;BMP_pressure;BME280_temperature;BME280_humidity;BME280_pressure;Samples;Min_cycle;Max_cycle;Signal;HPM_P1;HPM_P2
2022/07/20 00:00:20;;;;;;;1.23;1.20;;;26.90;91.50;;;;;;5047526;28;20227;-64
2022/07/20 00:02:47;;;;;;;1.77;1.30;;;27.00;91.60;;;;;;5054288;28;20208;-63
2022/07/20 00:05:14;;;;;;;1.40;1.30;;;26.90;91.70;;;;;;5059517;28;20232;-64
2022/07/20 00:07:41;;;;;;;1.40;1.35;;;26.80;91.80;;;;;;5053071;28;20662;-65
2022/07/20 00:12:53;;;;;;;1.15;1.10;;;26.80;92.00;;;;;;5048852;28;20329;-63
2022/07/20 00:15:21;;;;;;;1.15;1.15;;;26.70;91.90;;;;;;5060262;28;20205;-62
2022/07/20 00:17:48;;;;;;;1.13;1.10;;;26.60;92.10;;;;;;5059456;28;20326;-64
2022/07/20 00:20:15;;;;;;;1.25;1.20;;;26.60;92.00;;;;;;5053559;28;20238;-62
2022/07/20 00:22:42;;;;;;;1.40;1.30;;;26.50;92.10;;;;;;5066633;28;20692;-63
2022/07/20 00:25:09;;;;;;;1.20;1.20;;;26.50;92.10;;;;;;5057935;28;20200;-64
2022/07/20 00:27:36;;;;;;;1.25;1.20;;;26.50;92.20;;;;;;5061886;28;20291;-65
2022/07/20 00:30:03;;;;;;;1.17;1.17;;;26.50;92.10;;;;;;5059257;28;20227;-63
2022/07/20 00:32:37;;;;;;;1.33;1.23;;;26.50;92.20;;;;;;5051428;28;20227;-64
2022/07/20 00:35:04;;;;;;;1.08;1.08;;;26.50;92.30;;;;;;5058037;28;20294;-66
2022/07/20 00:37:31;;;;;;;1.40;1.10;;;26.50;92.10;;;;;;5048771;28;20229;-62
2022/07/20 00:39:58;;;;;;;1.33;1.23;;;26.50;92.20;;;;;;5057709;28;20697;-62
2022/07/20 00:42:25;;;;;;;1.67;1.20;;;26.40;92.20;;;;;;5059645;28;20294;-63
2022/07/20 00:44:52;;;;;;;1.27;1.20;;;26.50;92.20;;;;;;5055726;28;20673;-63
2022/07/20 00:47:19;;;;;;;1.40;1.30;;;26.50;92.30;;;;;;5059070;28;20235;-64
2022/07/20 00:49:47;;;;;;;1.30;1.30;;;26.50;92.30;;;;;;5052225;28;20306;-63
2022/07/20 00:52:15;;;;;;;1.40;1.30;;;26.40;92.40;;;;;;5057885;28;20306;-63
2022/07/20 00:54:45;;;;;;;1.20;1.20;;;26.40;92.50;;;;;;5049670;28;20295;-65
2022/07/20 00:57:12;;;;;;;1.10;1.10;;;26.40;92.60;;;;;;5054881;28;20227;-63
2022/07/20 00:59:39;;;;;;;1.40;1.30;;;26.30;92.60;;;;;;5060626;28;20584;-64
2022/07/20 01:02:06;;;;;;;1.23;1.20;;;26.30;92.70;;;;;;5054452;28;20195;-65
2022/07/20 01:04:33;;;;;;;1.30;1.30;;;26.20;92.90;;;;;;5042863;28;20256;-64
2022/07/20 01:07:02;;;;;;;1.38;1.30;;;26.20;93.00;;;;;;5053129;28;20227;-64
2022/07/20 01:09:29;;;;;;;1.23;1.20;;;26.10;93.10;;;;;;5056508;28;20219;-63
2022/07/20 01:11:56;;;;;;;1.55;1.30;;;26.00;93.10;;;;;;5048660;28;20195;-62
2022/07/20 01:14:23;;;;;;;1.50;1.40;;;26.00;93.30;;;;;;5052762;28;20286;-63
2022/07/20 01:16:50;;;;;;;1.25;1.20;;;25.90;93.30;;;;;;5073772;28;20298;-63
2022/07/20 01:19:17;;;;;;;1.20;1.20;;;25.90;93.20;;;;;;5049584;28;20266;-64
2022/07/20 01:21:45;;;;;;;1.30;1.20;;;25.90;93.30;;;;;;5043644;28;20283;-64
2022/07/20 01:24:13;;;;;;;2.15;1.48;;;25.90;93.40;;;;;;5051821;28;20228;-64
2022/07/20 01:26:42;;;;;;;1.20;1.20;;;25.90;93.50;;;;;;5071201;28;20203;-64
2022/07/20 01:29:10;;;;;;;1.23;1.20;;;25.90;93.50;;;;;;5054515;28;20302;-64
2022/07/20 01:31:37;;;;;;;1.15;1.15;;;25.90;93.60;;;;;;5074011;28;20294;-62
2022/07/20 01:34:04;;;;;;;1.38;1.38;;;25.90;93.60;;;;;;5054997;28;20904;-63
2022/07/20 01:36:31;;;;;;;1.30;1.30;;;25.80;93.70;;;;;;5045206;28;20207;-64
2022/07/20 01:38:59;;;;;;;1.60;1.50;;;25.80;93.80;;;;;;5047531;28;20725;-64
2022/07/20 01:41:26;;;;;;;1.48;1.38;;;25.70;93.80;;;;;;5054845;28;20202;-62
2022/07/20 01:43:53;;;;;;;1.50;1.40;;;25.70;93.80;;;;;;5056849;28;20207;-63
2022/07/20 01:46:20;;;;;;;1.40;1.33;;;25.70;93.80;;;;;;5052811;28;20227;-64
2022/07/20 01:48:47;;;;;;;1.73;1.40;;;25.70;93.80;;;;;;5063998;28;20233;-65
2022/07/20 01:51:14;;;;;;;1.50;1.40;;;25.70;93.80;;;;;;5045029;28;20243;-64
2022/07/20 01:53:41;;;;;;;1.42;1.30;;;25.70;93.80;;;;;;5045489;28;20248;-64
2022/07/20 01:56:09;;;;;;;3.20;1.35;;;25.70;93.80;;;;;;5044888;28;20245;-64
2022/07/20 01:58:36;;;;;;;1.33;1.30;;;25.70;93.80;;;;;;5057505;28;20258;-64
2022/07/20 02:01:03;;;;;;;1.45;1.40;;;25.70;94.10;;;;;;5061731;28;20223;-65
2022/07/20 02:03:30;;;;;;;1.23;1.20;;;25.70;94.00;;;;;;5054755;28;20204;-63
2022/07/20 02:05:57;;;;;;;1.48;1.30;;;25.60;94.40;;;;;;5058444;28;20694;-65
2022/07/20 02:08:25;;;;;;;1.10;1.10;;;25.50;94.30;;;;;;5049916;28;20196;-65
2022/07/20 02:10:52;;;;;;;1.45;1.35;;;25.50;94.60;;;;;;5059453;28;20603;-65
2022/07/20 02:13:20;;;;;;;1.35;1.23;;;25.50;94.30;;;;;;5052371;28;20821;-63
2022/07/20 02:18:31;;;;;;;1.08;1.08;;;25.50;94.40;;;;;;5054156;28;20226;-64
2022/07/20 02:20:58;;;;;;;1.50;1.40;;;25.50;94.80;;;;;;5054894;28;20223;-64
2022/07/20 02:23:25;;;;;;;1.25;1.20;;;25.50;94.50;;;;;;5059190;28;20222;-65
2022/07/20 02:25:52;;;;;;;1.30;1.30;;;25.40;94.60;;;;;;5043451;28;20203;-64
2022/07/20 02:28:20;;;;;;;1.40;1.30;;;25.40;94.70;;;;;;5049410;28;20204;-63
2022/07/20 02:30:47;;;;;;;1.30;1.30;;;25.30;94.90;;;;;;5060267;28;20315;-64
2022/07/20 02:33:13;;;;;;;1.40;1.30;;;25.10;95.10;;;;;;5052526;28;20285;-63
2022/07/20 02:35:40;;;;;;;1.50;1.40;;;25.00;95.60;;;;;;5058404;28;20218;-65
2022/07/20 02:38:07;;;;;;;4.05;1.48;;;25.00;95.40;;;;;;5053272;28;20250;-63
2022/07/20 02:40:34;;;;;;;1.17;1.17;;;25.00;95.40;;;;;;5059362;28;20227;-63
2022/07/20 02:43:01;;;;;;;1.50;1.40;;;25.00;95.50;;;;;;5054877;28;20593;-63
2022/07/20 02:45:29;;;;;;;1.20;1.20;;;25.00;95.60;;;;;;5065806;28;20295;-63
2022/07/20 02:48:02;;;;;;;2.30;1.30;;;25.00;95.50;;;;;;5082256;28;20191;-66
2022/07/20 02:50:29;;;;;;;2.08;1.40;;;24.80;95.60;;;;;;5056182;28;20315;-64
2022/07/20 02:52:56;;;;;;;1.63;1.50;;;24.70;95.70;;;;;;5062602;28;20571;-64
2022/07/20 02:55:24;;;;;;;1.73;1.30;;;24.70;95.80;;;;;;5054625;28;20296;-66
2022/07/20 02:57:51;;;;;;;1.40;1.40;;;24.60;96.00;;;;;;5059707;28;20313;-65
2022/07/20 03:00:17;;;;;;;1.30;1.20;;;24.60;96.10;;;;;;5049308;28;20307;-64
2022/07/20 03:02:46;;;;;;;1.30;1.25;;;24.60;96.60;;;;;;5058057;28;20291;-65
2022/07/20 03:05:13;;;;;;;1.42;1.33;;;24.60;96.30;;;;;;5064755;28;20302;-64
2022/07/20 03:07:40;;;;;;;1.23;1.23;;;24.60;96.50;;;;;;5055762;28;20203;-63
2022/07/20 03:10:07;;;;;;;1.33;1.30;;;24.50;96.40;;;;;;5061498;28;20226;-65
2022/07/20 03:12:35;;;;;;;1.10;1.10;;;24.50;96.70;;;;;;5054151;28;20215;-64
2022/07/20 03:15:02;;;;;;;1.42;1.33;;;24.40;96.60;;;;;;5059662;28;20204;-65
2022/07/20 03:17:29;;;;;;;1.33;1.25;;;24.40;96.60;;;;;;5052312;28;20658;-65
2022/07/20 03:19:57;;;;;;;1.20;1.20;;;24.40;96.70;;;;;;5056310;28;20722;-62
2022/07/20 03:22:24;;;;;;;1.23;1.23;;;24.30;96.80;;;;;;5066602;28;20240;-64
2022/07/20 03:24:51;;;;;;;1.27;1.20;;;24.40;96.90;;;;;;5050316;28;20236;-63
2022/07/20 03:27:18;;;;;;;1.60;1.50;;;24.40;97.00;;;;;;5042417;28;20203;-64
2022/07/20 03:29:45;;;;;;;1.52;1.42;;;24.40;97.00;;;;;;5065758;28;20302;-63
2022/07/20 03:32:11;;;;;;;1.50;1.40;;;24.40;97.00;;;;;;5052100;28;20208;-64
2022/07/20 03:34:38;;;;;;;1.20;1.20;;;24.40;97.10;;;;;;5063574;28;20634;-63
2022/07/20 03:37:06;;;;;;;1.13;1.13;;;24.30;97.10;;;;;;5055988;28;20204;-64
2022/07/20 03:39:33;;;;;;;1.95;1.40;;;24.30;97.40;;;;;;5058851;28;20227;-63
2022/07/20 03:42:00;;;;;;;1.63;1.52;;;24.20;97.30;;;;;;5056454;28;20223;-63
2022/07/20 03:44:27;;;;;;;1.23;1.23;;;24.20;97.70;;;;;;5053627;28;20236;-64
2022/07/20 03:46:54;;;;;;;1.15;1.15;;;24.20;97.40;;;;;;5064953;28;20203;-64
2022/07/20 03:49:21;;;;;;;1.48;1.38;;;24.10;97.70;;;;;;5053358;28;20311;-63
2022/07/20 03:51:48;;;;;;;1.50;1.40;;;24.10;97.70;;;;;;5063651;28;20203;-64
2022/07/20 03:54:16;;;;;;;1.20;1.20;;;24.10;98.20;;;;;;5086029;22;20257;-65
2022/07/20 03:56:43;;;;;;;3.92;1.40;;;24.20;98.40;;;;;;5088963;28;20226;-65
2022/07/20 03:59:11;;;;;;;1.20;1.20;;;24.10;98.00;;;;;;5093062;28;20261;-64
2022/07/20 04:01:39;;;;;;;1.25;1.25;;;24.00;98.30;;;;;;5092052;28;20294;-65
2022/07/20 04:04:06;;;;;;;1.50;1.40;;;24.00;98.40;;;;;;5092610;28;20240;-65
2022/07/20 04:06:34;;;;;;;1.45;1.40;;;23.90;98.10;;;;;;5087320;28;20205;-65
2022/07/20 04:09:01;;;;;;;1.30;1.20;;;23.90;98.40;;;;;;5093140;28;20209;-66
2022/07/20 04:11:30;;;;;;;1.40;1.35;;;23.90;98.60;;;;;;5092906;28;20199;-65
2022/07/20 04:13:57;;;;;;;1.10;1.10;;;23.80;98.60;;;;;;5093315;28;20735;-66
2022/07/20 04:16:24;;;;;;;1.58;1.48;;;23.80;98.80;;;;;;5093834;28;20198;-65
2022/07/20 04:18:51;;;;;;;1.45;1.20;;;23.80;98.80;;;;;;5094369;28;20219;-65
2022/07/20 04:21:18;;;;;;;1.63;1.52;;;23.80;98.80;;;;;;5089904;28;20227;-64
2022/07/20 04:23:45;;;;;;;1.48;1.35;;;23.90;99.30;;;;;;5095797;28;20198;-65
2022/07/20 04:26:12;;;;;;;1.40;1.30;;;23.90;99.00;;;;;;5095594;28;20214;-66
2022/07/20 04:28:40;;;;;;;1.50;1.40;;;23.90;99.00;;;;;;5094220;28;20278;-65
2022/07/20 04:31:07;;;;;;;2.30;1.40;;;23.90;99.20;;;;;;5093642;28;20256;-66
2022/07/20 04:33:34;;;;;;;2.92;1.60;;;23.90;99.20;;;;;;5093314;28;20547;-65
2022/07/20 04:36:01;;;;;;;1.60;1.50;;;23.80;99.30;;;;;;5093516;28;20244;-66
2022/07/20 04:38:28;;;;;;;1.83;1.73;;;23.90;99.60;;;;;;5092991;28;20309;-66
2022/07/20 04:40:54;;;;;;;1.55;1.45;;;23.80;99.90;;;;;;5092527;28;20263;-65
2022/07/20 04:43:21;;;;;;;3.40;1.60;;;23.80;99.90;;;;;;5092770;28;20206;-66
2022/07/20 04:45:49;;;;;;;1.77;1.50;;;23.70;99.90;;;;;;5092763;28;20257;-66
2022/07/20 04:48:16;;;;;;;1.63;1.40;;;23.50;99.90;;;;;;5092954;28;20581;-66
2022/07/20 04:50:43;;;;;;;1.25;1.20;;;23.50;99.90;;;;;;5089857;28;20211;-65
2022/07/20 04:53:10;;;;;;;1.25;1.25;;;23.50;99.90;;;;;;5092450;28;20202;-64
2022/07/20 04:55:37;;;;;;;1.60;1.50;;;23.40;99.90;;;;;;5090169;28;20401;-66
2022/07/20 04:58:04;;;;;;;3.63;1.48;;;23.40;99.90;;;;;;5091985;28;20226;-66
2022/07/20 05:00:31;;;;;;;1.20;1.20;;;23.40;99.90;;;;;;5083130;28;20282;-65
2022/07/20 05:02:59;;;;;;;1.40;1.30;;;23.40;99.90;;;;;;5092515;28;20255;-65
2022/07/20 05:05:26;;;;;;;2.15;1.60;;;23.50;99.90;;;;;;5089802;28;20264;-65
2022/07/20 05:07:53;;;;;;;1.60;1.50;;;23.60;99.90;;;;;;5089975;28;20201;-66
2022/07/20 05:10:20;;;;;;;1.50;1.40;;;23.80;99.90;;;;;;5078697;28;20222;-65
2022/07/20 05:12:47;;;;;;;1.50;1.40;;;23.90;99.90;;;;;;5082674;28;20290;-65
2022/07/20 05:15:13;;;;;;;1.90;1.80;;;24.00;99.90;;;;;;5080643;28;20315;-64
2022/07/20 05:17:40;;;;;;;1.73;1.60;;;24.20;99.90;;;;;;5086408;28;20396;-65
2022/07/20 05:20:10;;;;;;;1.42;1.33;;;24.30;99.90;;;;;;5086142;28;20314;-64
2022/07/20 05:22:37;;;;;;;1.20;1.20;;;24.40;99.90;;;;;;5080805;28;20211;-65
2022/07/20 05:25:04;;;;;;;1.58;1.48;;;24.60;99.90;;;;;;5086183;28;20309;-65
2022/07/20 05:27:31;;;;;;;1.60;1.50;;;24.80;99.90;;;;;;5087178;28;20195;-64
2022/07/20 05:29:58;;;;;;;1.55;1.42;;;24.90;99.50;;;;;;5088311;28;20194;-64
2022/07/20 05:32:25;;;;;;;1.38;1.27;;;25.00;99.50;;;;;;5089534;28;20584;-66
2022/07/20 05:34:52;;;;;;;1.55;1.45;;;25.20;99.30;;;;;;5090415;28;20215;-65
2022/07/20 05:37:20;;;;;;;1.42;1.33;;;25.40;99.30;;;;;;5089877;28;20652;-64
2022/07/20 05:39:47;;;;;;;1.50;1.40;;;25.50;99.30;;;;;;5090032;28;20233;-65
2022/07/20 05:42:14;;;;;;;1.60;1.50;;;25.70;99.10;;;;;;5084269;28;20654;-64
2022/07/20 05:44:41;;;;;;;1.20;1.20;;;25.80;99.10;;;;;;5088109;28;20259;-66
2022/07/20 05:47:09;;;;;;;2.90;1.77;;;25.90;98.70;;;;;;5090465;28;20195;-65
2022/07/20 05:49:36;;;;;;;2.08;1.50;;;26.00;98.00;;;;;;5082529;28;20225;-64
2022/07/20 05:52:04;;;;;;;1.58;1.48;;;26.20;97.90;;;;;;5087126;28;20199;-65
2022/07/20 05:54:33;;;;;;;1.23;1.23;;;26.30;97.50;;;;;;5090564;28;20660;-64
2022/07/20 05:56:59;;;;;;;1.45;1.33;;;26.50;97.70;;;;;;5086864;28;20212;-65
2022/07/20 05:59:26;;;;;;;2.30;1.63;;;26.50;97.60;;;;;;5088281;28;20309;-65
2022/07/20 06:01:53;;;;;;;2.15;1.25;;;26.60;97.60;;;;;;5085176;28;20201;-65
2022/07/20 06:04:20;;;;;;;1.15;1.15;;;26.80;97.40;;;;;;5081266;28;20215;-66
2022/07/20 06:06:47;;;;;;;1.50;1.40;;;26.90;96.90;;;;;;5086729;28;20234;-64
2022/07/20 06:09:14;;;;;;;1.48;1.38;;;27.10;96.60;;;;;;5089309;28;20202;-65
2022/07/20 06:11:42;;;;;;;1.50;1.40;;;27.20;96.50;;;;;;5089117;28;20203;-66
2022/07/20 06:14:09;;;;;;;1.45;1.35;;;27.30;96.20;;;;;;5090484;28;20260;-63
2022/07/20 06:16:36;;;;;;;1.92;1.50;;;27.40;95.70;;;;;;5089864;28;20206;-64
2022/07/20 06:19:03;;;;;;;1.60;1.50;;;27.70;96.40;;;;;;5089300;28;20343;-64
2022/07/20 06:21:30;;;;;;;1.52;1.42;;;27.80;95.70;;;;;;5089649;28;20230;-66
2022/07/20 06:23:57;;;;;;;1.27;1.27;;;28.00;96.30;;;;;;5089119;28;20257;-66
2022/07/20 06:26:24;;;;;;;1.20;1.20;;;28.10;96.40;;;;;;5087967;28;20294;-64
2022/07/20 06:28:52;;;;;;;1.60;1.50;;;28.30;96.70;;;;;;5090185;28;20675;-66
2022/07/20 06:31:19;;;;;;;1.38;1.27;;;28.40;96.60;;;;;;5089731;28;20205;-67
2022/07/20 06:33:46;;;;;;;1.42;1.33;;;28.50;96.00;;;;;;5090917;28;20285;-65
2022/07/20 06:36:13;;;;;;;1.63;1.27;;;28.60;96.10;;;;;;5088636;28;20234;-65
2022/07/20 06:38:39;;;;;;;1.50;1.40;;;28.80;96.20;;;;;;5078476;28;20271;-65
2022/07/20 06:41:06;;;;;;;1.40;1.30;;;28.90;96.30;;;;;;5075921;28;20767;-65
2022/07/20 06:43:33;;;;;;;1.30;1.30;;;28.80;96.50;;;;;;5077970;28;20729;-65
2022/07/20 06:46:01;;;;;;;1.42;1.33;;;28.80;96.00;;;;;;5071445;28;20284;-65
2022/07/20 06:48:28;;;;;;;1.63;1.52;;;29.00;96.10;;;;;;5076972;28;20825;-65
2022/07/20 06:50:55;;;;;;;1.55;1.40;;;29.20;95.70;;;;;;5075302;28;20199;-65
2022/07/20 06:53:23;;;;;;;1.50;1.40;;;29.30;95.30;;;;;;5077113;28;20270;-65
2022/07/20 06:55:50;;;;;;;1.30;1.20;;;29.50;95.10;;;;;;5079660;28;20239;-64
2022/07/20 06:58:16;;;;;;;3.40;1.50;;;29.80;95.40;;;;;;5085457;28;20209;-66
2022/07/20 07:00:43;;;;;;;1.65;1.55;;;30.00;95.60;;;;;;5083405;28;20223;-66
2022/07/20 07:03:11;;;;;;;1.88;1.20;;;30.20;95.80;;;;;;5083376;28;20322;-65
2022/07/20 07:05:38;;;;;;;1.50;1.40;;;30.50;96.00;;;;;;5085853;28;20677;-66
2022/07/20 07:08:05;;;;;;;1.58;1.48;;;30.70;95.80;;;;;;5087656;28;20206;-63
2022/07/20 07:10:32;;;;;;;1.30;1.20;;;30.90;95.70;;;;;;5083902;28;21507;-66
2022/07/20 07:12:59;;;;;;;1.40;1.30;;;31.20;95.80;;;;;;5075826;28;20279;-65
2022/07/20 07:15:26;;;;;;;1.27;1.27;;;31.30;95.40;;;;;;5069294;28;20239;-65
2022/07/20 07:17:53;;;;;;;1.20;1.20;;;31.50;95.40;;;;;;5071962;28;20200;-64
2022/07/20 07:20:21;;;;;;;1.70;1.60;;;31.70;95.50;;;;;;5071541;28;20311;-66
2022/07/20 07:22:48;;;;;;;1.60;1.50;;;31.80;95.10;;;;;;5086417;28;20216;-66
2022/07/20 07:25:15;;;;;;;2.28;1.27;;;31.70;94.60;;;;;;5085066;28;20254;-66
2022/07/20 07:27:42;;;;;;;1.48;1.38;;;31.70;94.70;;;;;;5084483;28;20574;-65
2022/07/20 07:30:10;;;;;;;3.60;1.73;;;31.70;95.10;;;;;;5083643;28;20568;-66
2022/07/20 07:32:36;;;;;;;1.50;1.40;;;31.80;95.00;;;;;;5086036;28;20196;-66
2022/07/20 07:35:04;;;;;;;1.50;1.40;;;31.80;95.00;;;;;;5084698;28;20263;-66
2022/07/20 07:37:32;;;;;;;1.42;1.42;;;32.00;95.30;;;;;;5107107;28;20234;-64
2022/07/20 07:39:59;;;;;;;1.83;1.70;;;32.10;95.40;;;;;;5110302;28;20218;-65
2022/07/20 07:42:26;;;;;;;1.60;1.42;;;32.20;95.20;;;;;;5097018;28;20210;-64
2022/07/20 07:44:53;;;;;;;1.65;1.40;;;32.20;95.40;;;;;;5093744;28;20218;-65
2022/07/20 07:47:20;;;;;;;1.80;1.70;;;32.00;95.60;;;;;;5092962;28;20923;-65
2022/07/20 07:49:47;;;;;;;1.98;1.65;;;32.00;96.10;;;;;;5090944;28;20226;-65
2022/07/20 07:52:13;;;;;;;2.25;1.85;;;32.00;96.20;;;;;;5094998;28;20203;-65
2022/07/20 07:54:42;;;;;;;1.95;1.50;;;31.70;96.30;;;;;;5095313;28;20242;-65
2022/07/20 07:57:09;;;;;;;1.80;1.70;;;31.90;96.90;;;;;;5093127;28;20285;-65
2022/07/20 07:59:35;;;;;;;1.67;1.50;;;32.00;96.60;;;;;;5094641;28;20249;-66
2022/07/20 08:02:02;;;;;;;1.70;1.60;;;32.20;96.60;;;;;;5092010;28;20737;-64
2022/07/20 08:04:29;;;;;;;5.65;1.83;;;32.40;97.10;;;;;;5087559;28;20236;-66
2022/07/20 08:06:56;;;;;;;1.65;1.55;;;32.50;96.50;;;;;;5084026;28;20309;-66
2022/07/20 08:09:23;;;;;;;1.50;1.40;;;32.70;96.70;;;;;;5090532;28;20252;-66
2022/07/20 08:11:51;;;;;;;1.58;1.50;;;32.80;96.50;;;;;;5080138;28;20207;-64
2022/07/20 08:14:18;;;;;;;1.60;1.50;;;32.90;96.80;;;;;;5080754;28;20238;-65
2022/07/20 08:16:45;;;;;;;2.05;1.60;;;32.90;96.70;;;;;;5088462;28;20281;-66
2022/07/20 08:19:12;;;;;;;2.00;1.90;;;32.90;96.70;;;;;;5093433;28;20708;-66
2022/07/20 08:21:39;;;;;;;1.80;1.70;;;33.00;96.60;;;;;;5092067;28;20199;-65
2022/07/20 08:24:07;;;;;;;1.80;1.70;;;32.90;96.90;;;;;;5092816;28;20257;-67
2022/07/20 08:26:34;;;;;;;2.05;1.77;;;32.90;97.00;;;;;;5081812;28;20231;-66
2022/07/20 08:29:03;;;;;;;2.05;1.80;;;33.00;97.20;;;;;;5084892;28;20251;-67
2022/07/20 08:31:29;;;;;;;1.50;1.50;;;33.00;97.30;;;;;;5083011;28;20288;-65
2022/07/20 08:33:56;;;;;;;1.90;1.80;;;33.20;97.30;;;;;;5075378;28;20318;-65
2022/07/20 08:36:23;;;;;;;2.22;1.90;;;33.30;97.30;;;;;;5085754;28;20282;-62
2022/07/20 08:38:50;;;;;;;2.38;2.17;;;33.40;97.20;;;;;;5086490;28;20202;-61
2022/07/20 08:41:17;;;;;;;2.00;1.88;;;33.40;97.10;;;;;;5078562;28;20313;-66
2022/07/20 08:43:44;;;;;;;2.20;2.00;;;33.40;97.20;;;;;;5091038;28;20581;-64
2022/07/20 08:46:13;;;;;;;1.85;1.73;;;33.40;97.10;;;;;;5083701;28;20701;-64
2022/07/20 08:48:41;;;;;;;3.60;1.90;;;33.50;96.90;;;;;;5087508;28;20212;-64
2022/07/20 08:51:08;;;;;;;3.03;1.90;;;33.70;96.80;;;;;;5080387;28;20368;-65
2022/07/20 08:53:35;;;;;;;2.10;2.00;;;33.70;96.10;;;;;;5078906;28;20598;-65
2022/07/20 08:56:02;;;;;;;2.17;2.00;;;33.70;95.40;;;;;;5076481;28;20241;-67
2022/07/20 08:58:29;;;;;;;1.83;1.73;;;33.90;95.50;;;;;;5077397;28;20305;-65
2022/07/20 09:00:56;;;;;;;2.70;1.73;;;33.90;95.70;;;;;;5072325;28;20257;-66
2022/07/20 09:03:24;;;;;;;2.05;1.95;;;34.10;95.90;;;;;;5087275;28;20285;-69
2022/07/20 09:06:04;;;;;;;1.95;1.85;;;34.10;95.90;;;;;;5079171;28;20317;-63
2022/07/20 09:08:31;;;;;;;2.30;2.15;;;33.90;95.50;;;;;;5083700;28;20702;-64
2022/07/20 09:11:01;;;;;;;2.38;2.17;;;33.80;95.50;;;;;;5085395;28;20286;-64
2022/07/20 09:13:30;;;;;;;2.33;2.13;;;33.70;95.90;;;;;;5091394;28;20207;-67
2022/07/20 09:15:57;;;;;;;1.83;1.73;;;33.60;96.10;;;;;;5085196;28;20337;-64
2022/07/20 09:18:27;;;;;;;3.17;2.25;;;33.60;96.00;;;;;;5085553;28;20227;-63
2022/07/20 09:20:56;;;;;;;6.78;2.38;;;33.70;95.70;;;;;;5082655;28;20223;-64
2022/07/20 09:23:25;;;;;;;2.35;2.17;;;33.50;96.20;;;;;;5088201;28;20203;-67
2022/07/20 09:25:55;;;;;;;2.88;2.00;;;33.40;95.90;;;;;;5085716;28;20269;-65
2022/07/20 09:28:22;;;;;;;2.30;2.10;;;33.40;96.30;;;;;;5081635;28;20205;-64
2022/07/20 09:30:51;;;;;;;4.60;2.00;;;33.40;96.30;;;;;;5088357;28;20695;-64
2022/07/20 09:33:26;;;;;;;4.13;1.90;;;33.40;96.40;;;;;;5084749;28;20203;-63
2022/07/20 09:35:53;;;;;;;1.75;1.65;;;33.40;96.20;;;;;;5088908;28;20226;-66
2022/07/20 09:38:20;;;;;;;2.42;2.08;;;33.30;96.00;;;;;;5093510;28;20262;-69
2022/07/20 09:40:47;;;;;;;2.00;1.90;;;33.30;95.80;;;;;;5088005;28;20586;-64
2022/07/20 09:43:28;;;;;;;2.10;1.90;;;33.20;94.80;;;;;;5090731;28;20275;-65
2022/07/20 09:45:56;;;;;;;2.17;2.08;;;32.90;95.00;;;;;;5089063;28;20254;-67
2022/07/20 09:48:25;;;;;;;1.80;1.70;;;33.00;94.90;;;;;;5088286;28;20234;-65
2022/07/20 09:50:52;;;;;;;1.88;1.77;;;33.20;94.90;;;;;;5090619;28;20197;-65
2022/07/20 09:53:19;;;;;;;3.30;1.77;;;33.10;94.70;;;;;;5092091;28;20226;-64
2022/07/20 09:55:47;;;;;;;1.77;1.67;;;33.00;94.70;;;;;;5089668;28;20222;-65
2022/07/20 09:58:13;;;;;;;1.98;1.60;;;32.80;94.80;;;;;;5089950;28;20306;-67
2022/07/20 10:00:41;;;;;;;1.73;1.63;;;32.80;95.40;;;;;;5079800;28;20222;-65
2022/07/20 10:03:12;;;;;;;1.85;1.75;;;32.70;94.90;;;;;;5083836;28;20210;-66
2022/07/20 10:05:41;;;;;;;2.30;1.83;;;32.60;94.90;;;;;;5092242;28;20263;-64
2022/07/20 10:08:09;;;;;;;4.00;1.85;;;32.60;94.90;;;;;;5111875;22;20222;-65
2022/07/20 10:10:36;;;;;;;2.15;1.95;;;32.90;95.10;;;;;;5070174;28;20207;-66
2022/07/20 10:13:03;;;;;;;2.10;2.00;;;33.20;94.90;;;;;;5072267;28;20606;-67
2022/07/20 10:15:35;;;;;;;2.17;1.98;;;33.50;94.90;;;;;;5071228;28;20241;-66
2022/07/20 10:18:03;;;;;;;3.83;2.13;;;33.70;94.70;;;;;;5068462;28;20259;-65
2022/07/20 10:20:35;;;;;;;2.45;2.03;;;34.00;94.40;;;;;;5052139;28;20314;-67
2022/07/20 10:23:38;;;;;;;3.03;1.90;;;33.60;94.00;;;;;;5052009;28;20210;-67
2022/07/20 10:26:25;;;;;;;2.08;1.90;;;33.60;94.20;;;;;;5049754;28;20287;-66
2022/07/20 10:29:00;;;;;;;3.08;2.28;;;33.30;94.40;;;;;;5051856;28;20223;-65
2022/07/20 10:31:26;;;;;;;2.80;2.13;;;33.40;94.50;;;;;;5051622;28;20210;-66
2022/07/20 10:33:54;;;;;;;2.55;2.25;;;33.70;94.00;;;;;;5051615;28;20212;-66
2022/07/20 10:39:43;;;;;;;2.90;2.58;;;34.10;94.80;;;;;;4990491;28;20268;-67
2022/07/20 10:42:26;;;;;;;2.45;2.22;;;34.20;95.00;;;;;;4990802;28;20206;-66
2022/07/20 10:44:53;;;;;;;3.13;2.92;;;34.40;95.30;;;;;;4990569;28;20273;-65
2022/07/20 10:47:42;;;;;;;3.40;3.10;;;34.50;95.20;;;;;;4985863;28;20292;-65
2022/07/20 10:50:11;;;;;;;2.90;2.80;;;34.40;95.80;;;;;;4982037;28;20202;-65
2022/07/20 10:52:38;;;;;;;3.50;2.88;;;34.40;96.30;;;;;;4988312;28;20228;-65
2022/07/20 10:55:06;;;;;;;3.40;3.10;;;34.60;96.20;;;;;;4991118;28;20433;-66
2022/07/20 10:57:36;;;;;;;3.30;3.10;;;34.90;96.20;;;;;;4991480;28;20218;-65
2022/07/20 11:00:14;;;;;;;3.05;2.85;;;34.90;96.00;;;;;;4997421;28;20316;-66
2022/07/20 11:02:41;;;;;;;2.78;2.67;;;34.60;96.60;;;;;;4993454;28;20688;-66
2022/07/20 11:05:21;;;;;;;4.70;3.30;;;34.30;97.00;;;;;;4993619;28;20266;-65
2022/07/20 11:07:48;;;;;;;2.90;2.70;;;34.20;97.00;;;;;;4993074;28;20356;-65
2022/07/20 11:10:26;;;;;;;3.33;3.13;;;33.90;97.40;;;;;;5022796;28;20251;-67
2022/07/20 11:12:59;;;;;;;4.93;3.65;;;33.60;98.00;;;;;;5054673;28;20196;-66
2022/07/20 11:15:42;;;;;;;3.80;3.50;;;33.40;98.30;;;;;;5052027;28;20555;-65
2022/07/20 11:18:11;;;;;;;3.83;3.53;;;33.30;98.40;;;;;;5055015;28;20227;-65
2022/07/20 11:20:46;;;;;;;3.40;3.10;;;33.20;98.60;;;;;;5055635;28;20353;-65
2022/07/20 11:23:14;;;;;;;3.70;3.40;;;33.00;98.70;;;;;;5044062;28;20287;-66
2022/07/20 11:25:46;;;;;;;3.28;3.00;;;33.00;99.10;;;;;;5055556;28;20208;-65
2022/07/20 11:28:17;;;;;;;3.20;3.00;;;32.90;99.20;;;;;;5053676;28;20223;-66
2022/07/20 11:30:43;;;;;;;3.78;3.47;;;32.90;99.20;;;;;;5053326;28;20283;-65
2022/07/20 11:33:11;;;;;;;2.92;2.72;;;32.90;99.10;;;;;;5055095;28;20273;-65
2022/07/20 11:35:38;;;;;;;3.55;3.13;;;33.00;99.20;;;;;;5055304;28;20204;-66
2022/07/20 11:38:04;;;;;;;3.97;3.05;;;32.90;99.10;;;;;;5054858;28;20724;-65
2022/07/20 11:40:31;;;;;;;2.85;2.65;;;32.80;98.80;;;;;;5062442;28;20259;-66
2022/07/20 11:43:06;;;;;;;3.25;3.03;;;32.70;98.30;;;;;;5059914;28;20263;-65
2022/07/20 11:45:35;;;;;;;2.80;2.60;;;32.80;99.20;;;;;;5055266;28;20208;-66
2022/07/20 11:48:03;;;;;;;3.00;2.80;;;32.80;98.10;;;;;;5052958;28;20295;-66
2022/07/20 11:50:34;;;;;;;2.72;2.58;;;32.70;97.70;;;;;;5054657;28;20203;-66
2022/07/20 11:53:01;;;;;;;2.50;2.38;;;32.60;97.40;;;;;;5055156;28;20200;-65
2022/07/20 11:55:35;;;;;;;2.70;2.50;;;32.50;97.70;;;;;;5062660;28;20214;-66
2022/07/20 11:58:03;;;;;;;2.85;2.65;;;32.50;97.70;;;;;;5062108;28;20231;-66
2022/07/20 12:00:30;;;;;;;3.85;2.92;;;32.40;97.50;;;;;;5061606;28;20255;-66
2022/07/20 12:02:59;;;;;;;2.70;2.50;;;32.30;97.80;;;;;;5055675;28;20200;-65
2022/07/20 12:05:26;;;;;;;3.40;2.92;;;32.10;98.10;;;;;;5049085;28;20657;-66
2022/07/20 12:08:11;;;;;;;2.90;2.70;;;32.00;98.40;;;;;;5048293;28;20299;-65
2022/07/20 12:10:38;;;;;;;2.92;2.72;;;31.90;99.10;;;;;;5043102;28;20227;-65
2022/07/20 12:13:07;;;;;;;2.63;2.42;;;31.80;98.70;;;;;;5048354;28;20235;-66
2022/07/20 12:15:35;;;;;;;3.42;2.70;;;31.80;99.00;;;;;;5044426;28;20690;-65
2022/07/20 12:18:04;;;;;;;2.88;2.78;;;31.60;98.90;;;;;;5055871;28;20263;-65
2022/07/20 12:20:31;;;;;;;2.88;2.67;;;31.60;99.20;;;;;;5053883;28;20236;-65
2022/07/20 12:23:01;;;;;;;3.67;2.75;;;31.50;99.30;;;;;;5051180;28;20208;-64
2022/07/20 12:25:36;;;;;;;2.78;2.58;;;31.50;99.50;;;;;;5047372;28;20204;-65
2022/07/20 12:28:03;;;;;;;3.72;3.10;;;31.30;99.70;;;;;;5043097;28;20215;-64
2022/07/20 12:30:34;;;;;;;3.08;2.67;;;31.30;99.70;;;;;;5048337;28;20621;-64
2022/07/20 12:33:07;;;;;;;2.80;2.60;;;31.50;99.90;;;;;;5043004;28;20223;-65
2022/07/20 12:35:35;;;;;;;2.88;2.67;;;31.50;99.70;;;;;;5047510;28;20258;-64
2022/07/20 12:38:02;;;;;;;2.60;2.40;;;31.60;99.90;;;;;;5051759;28;20585;-65
2022/07/20 12:40:38;;;;;;;3.35;2.97;;;31.70;99.70;;;;;;5052442;28;20204;-65
2022/07/20 12:43:05;;;;;;;3.53;2.85;;;32.10;99.80;;;;;;5050842;28;20234;-65
2022/07/20 12:45:32;;;;;;;4.05;2.97;;;32.50;99.00;;;;;;5046072;28;20670;-64
2022/07/20 12:47:59;;;;;;;3.10;2.80;;;32.90;98.50;;;;;;5052623;28;20629;-66
2022/07/20 12:50:28;;;;;;;4.05;3.30;;;33.20;98.00;;;;;;5053410;28;20226;-66
2022/07/20 12:52:54;;;;;;;2.47;2.38;;;33.30;97.50;;;;;;5052803;28;20235;-65
2022/07/20 12:55:21;;;;;;;2.70;2.60;;;33.00;97.90;;;;;;5050030;28;20287;-66
2022/07/20 12:57:48;;;;;;;3.05;2.58;;;32.90;97.80;;;;;;5052126;28;20292;-65
2022/07/20 13:00:16;;;;;;;2.85;2.65;;;32.80;97.50;;;;;;5041617;28;20238;-65